sensor_id;sensor_type;location;lat;lon;timestamp;temperature;humidity
423;DHT22;198;48.752;9.180;2023-11-21T00:01:25;8.70;99.90
423;DHT22;198;48.752;9.180;2023-11-21T00:03:51;8.70;99.90
423;DHT22;198;48.752;9.180;2023-11-21T00:06:19;8.60;99.90
423;DHT22;198;48.752;9.180;2023-11-21T00:08:45;8.60;99.90
423;DHT22;198;48.752;9.180;2023-11-21T00:11:11;8.50;99.90
423;DHT22;198;48.752;9.180;2023-11-21T00:13:36;8.50;99.90
423;DHT22;198;48.752;9.180;2023-11-21T00:16:03;8.50;99.90
423;DHT22;198;48.752;9.180;2023-11-21T00:18:29;8.50;99.90
423;DHT22;198;48.752;9.180;2023-11-21T00:20:55;8.50;99.90
423;DHT22;198;48.752;9.180;2023-11-21T00:23:20;8.40;99.90
423;DHT22;198;48.752;9.180;2023-11-21T00:25:46;8.40;99.90
423;DHT22;198;48.752;9.180;2023-11-21T00:28:11;8.40;99.90
423;DHT22;198;48.752;9.180;2023-11-21T00:30:37;8.40;99.90
423;DHT22;198;48.752;9.180;2023-11-21T00:33:03;8.40;99.90
423;DHT22;198;48.752;9.180;2023-11-21T00:35:29;8.40;99.90
423;DHT22;198;48.752;9.180;2023-11-21T00:37:55;8.40;99.90
423;DHT22;198;48.752;9.180;2023-11-21T00:40:21;8.40;99.90
423;DHT22;198;48.752;9.180;2023-11-21T00:42:47;8.50;99.90
423;DHT22;198;48.752;9.180;2023-11-21T00:45:13;8.50;99.90
423;DHT22;198;48.752;9.180;2023-11-21T00:47:38;8.50;99.90
423;DHT22;198;48.752;9.180;2023-11-21T00:50:05;8.60;99.90
423;DHT22;198;48.752;9.180;2023-11-21T00:52:32;8.50;99.90
423;DHT22;198;48.752;9.180;2023-11-21T00:54:57;8.50;99.90
423;DHT22;198;48.752;9.180;2023-11-21T00:57:25;8.50;99.90
423;DHT22;198;48.752;9.180;2023-11-21T00:59:51;8.50;99.90
423;DHT22;198;48.752;9.180;2023-11-21T01:02:17;8.50;99.90
423;DHT22;198;48.752;9.180;2023-11-21T01:04:42;8.40;99.90
423;DHT22;198;48.752;9.180;2023-11-21T01:07:08;8.40;99.90
423;DHT22;198;48.752;9.180;2023-11-21T01:09:34;8.30;99.90
423;DHT22;198;48.752;9.180;2023-11-21T01:12:00;8.30;99.90
423;DHT22;198;48.752;9.180;2023-11-21T01:14:26;8.30;99.90
423;DHT22;198;48.752;9.180;2023-11-21T01:16:52;8.30;99.90
423;DHT22;198;48.752;9.180;2023-11-21T01:19:18;8.40;99.90
423;DHT22;198;48.752;9.180;2023-11-21T01:21:43;8.30;99.90
423;DHT22;198;48.752;9.180;2023-11-21T01:24:09;8.30;99.90
423;DHT22;198;48.752;9.180;2023-11-21T01:26:34;8.30;99.90
423;DHT22;198;48.752;9.180;2023-11-21T01:29:00;8.30;99.90
423;DHT22;198;48.752;9.180;2023-11-21T01:31:25;8.30;99.90
423;DHT22;198;48.752;9.180;2023-11-21T01:33:55;8.30;99.90
423;DHT22;198;48.752;9.180;2023-11-21T01:36:21;8.30;99.90
423;DHT22;198;48.752;9.180;2023-11-21T01:38:47;8.40;99.90
423;DHT22;198;48.752;9.180;2023-11-21T01:41:15;8.40;99.90
423;DHT22;198;48.752;9.180;2023-11-21T01:43:41;8.40;99.90
423;DHT22;198;48.752;9.180;2023-11-21T01:46:08;8.40;99.90
423;DHT22;198;48.752;9.180;2023-11-21T01:48:34;8.40;99.90
423;DHT22;198;48.752;9.180;2023-11-21T01:51:00;8.50;99.90
423;DHT22;198;48.752;9.180;2023-11-21T01:53:26;8.50;99.90
423;DHT22;198;48.752;9.180;2023-11-21T01:55:53;8.50;99.90
423;DHT22;198;48.752;9.180;2023-11-21T01:58:19;8.50;99.90
423;DHT22;198;48.752;9.180;2023-11-21T02:00:45;8.40;99.90
423;DHT22;198;48.752;9.180;2023-11-21T02:03:11;8.50;99.90
423;DHT22;198;48.752;9.180;2023-11-21T02:05:37;8.50;99.90
423;DHT22;198;48.752;9.180;2023-11-21T02:08:03;8.50;99.90
423;DHT22;198;48.752;9.180;2023-11-21T02:10:34;8.60;99.90
423;DHT22;198;48.752;9.180;2023-11-21T02:13:02;8.50;99.90
423;DHT22;198;48.752;9.180;2023-11-21T02:15:28;8.50;99.90
423;DHT22;198;48.752;9.180;2023-11-21T02:17:54;8.50;99.90
423;DHT22;198;48.752;9.180;2023-11-21T02:20:23;8.50;99.90
423;DHT22;198;48.752;9.180;2023-11-21T02:22:51;8.50;99.90
423;DHT22;198;48.752;9.180;2023-11-21T02:25:32;8.50;99.90
423;DHT22;198;48.752;9.180;2023-11-21T02:28:02;8.50;99.90
423;DHT22;198;48.752;9.180;2023-11-21T02:30:28;8.50;99.90
423;DHT22;198;48.752;9.180;2023-11-21T02:32:54;8.50;99.90
423;DHT22;198;48.752;9.180;2023-11-21T02:35:21;8.50;99.90
423;DHT22;198;48.752;9.180;2023-11-21T02:37:49;8.50;99.90
423;DHT22;198;48.752;9.180;2023-11-21T02:40:15;8.40;99.90
423;DHT22;198;48.752;9.180;2023-11-21T02:42:46;8.50;99.90
423;DHT22;198;48.752;9.180;2023-11-21T02:45:13;8.50;99.90
423;DHT22;198;48.752;9.180;2023-11-21T02:47:39;8.50;99.90
423;DHT22;198;48.752;9.180;2023-11-21T02:50:06;8.50;99.90
423;DHT22;198;48.752;9.180;2023-11-21T02:52:34;8.50;99.90
423;DHT22;198;48.752;9.180;2023-11-21T02:55:01;8.40;99.90
423;DHT22;198;48.752;9.180;2023-11-21T02:57:26;8.40;99.90
423;DHT22;198;48.752;9.180;2023-11-21T02:59:52;8.40;99.90
423;DHT22;198;48.752;9.180;2023-11-21T03:02:17;8.40;99.90
423;DHT22;198;48.752;9.180;2023-11-21T03:04:43;8.30;99.90
423;DHT22;198;48.752;9.180;2023-11-21T03:07:09;8.30;99.90
423;DHT22;198;48.752;9.180;2023-11-21T03:09:35;8.30;99.90
423;DHT22;198;48.752;9.180;2023-11-21T03:12:00;8.30;99.90
423;DHT22;198;48.752;9.180;2023-11-21T03:14:26;8.20;99.90
423;DHT22;198;48.752;9.180;2023-11-21T03:16:51;8.20;99.90
423;DHT22;198;48.752;9.180;2023-11-21T03:19:17;8.20;99.90
423;DHT22;198;48.752;9.180;2023-11-21T03:21:42;8.10;99.90
423;DHT22;198;48.752;9.180;2023-11-21T03:24:08;8.10;99.90
423;DHT22;198;48.752;9.180;2023-11-21T03:26:34;8.10;99.90
423;DHT22;198;48.752;9.180;2023-11-21T03:28:59;8.10;99.90
423;DHT22;198;48.752;9.180;2023-11-21T03:31:25;8.10;99.90
423;DHT22;198;48.752;9.180;2023-11-21T03:33:52;8.20;99.90
423;DHT22;198;48.752;9.180;2023-11-21T03:36:19;8.20;99.90
423;DHT22;198;48.752;9.180;2023-11-21T03:38:44;8.20;99.90
423;DHT22;198;48.752;9.180;2023-11-21T03:41:10;8.30;99.90
423;DHT22;198;48.752;9.180;2023-11-21T03:43:39;8.30;99.90
423;DHT22;198;48.752;9.180;2023-11-21T03:46:04;8.30;99.90
423;DHT22;198;48.752;9.180;2023-11-21T03:48:30;8.30;99.90
423;DHT22;198;48.752;9.180;2023-11-21T03:50:55;8.30;99.90
423;DHT22;198;48.752;9.180;2023-11-21T03:53:21;8.20;99.90
423;DHT22;198;48.752;9.180;2023-11-21T03:55:46;8.30;99.90
423;DHT22;198;48.752;9.180;2023-11-21T03:58:12;8.30;99.90
423;DHT22;198;48.752;9.180;2023-11-21T04:00:37;8.20;99.90
423;DHT22;198;48.752;9.180;2023-11-21T04:03:03;8.30;99.90
423;DHT22;198;48.752;9.180;2023-11-21T04:05:28;8.40;99.90
423;DHT22;198;48.752;9.180;2023-11-21T04:07:54;8.50;99.90
423;DHT22;198;48.752;9.180;2023-11-21T04:10:20;8.50;99.90
423;DHT22;198;48.752;9.180;2023-11-21T04:12:46;8.50;99.90
423;DHT22;198;48.752;9.180;2023-11-21T04:15:11;8.50;99.90
423;DHT22;198;48.752;9.180;2023-11-21T04:17:38;8.50;99.90
423;DHT22;198;48.752;9.180;2023-11-21T04:20:05;8.50;99.90
423;DHT22;198;48.752;9.180;2023-11-21T04:22:41;8.50;99.90
423;DHT22;198;48.752;9.180;2023-11-21T04:25:09;8.60;99.90
423;DHT22;198;48.752;9.180;2023-11-21T04:27:36;8.70;99.90
423;DHT22;198;48.752;9.180;2023-11-21T04:30:02;8.60;99.90
423;DHT22;198;48.752;9.180;2023-11-21T04:32:27;8.60;99.90
423;DHT22;198;48.752;9.180;2023-11-21T04:34:53;8.70;99.90
423;DHT22;198;48.752;9.180;2023-11-21T04:37:18;8.70;99.90
423;DHT22;198;48.752;9.180;2023-11-21T04:39:44;8.60;99.90
423;DHT22;198;48.752;9.180;2023-11-21T04:42:09;8.60;99.90
423;DHT22;198;48.752;9.180;2023-11-21T04:44:35;8.60;99.90
423;DHT22;198;48.752;9.180;2023-11-21T04:47:01;8.50;99.90
423;DHT22;198;48.752;9.180;2023-11-21T04:49:27;8.40;99.90
423;DHT22;198;48.752;9.180;2023-11-21T04:51:52;8.40;99.90
423;DHT22;198;48.752;9.180;2023-11-21T04:54:18;8.40;99.90
423;DHT22;198;48.752;9.180;2023-11-21T04:56:43;8.40;99.90
423;DHT22;198;48.752;9.180;2023-11-21T04:59:09;8.40;99.90
423;DHT22;198;48.752;9.180;2023-11-21T05:01:34;8.40;99.90
423;DHT22;198;48.752;9.180;2023-11-21T05:04:01;8.40;99.90
423;DHT22;198;48.752;9.180;2023-11-21T05:06:27;8.40;99.90
423;DHT22;198;48.752;9.180;2023-11-21T05:08:52;8.40;99.90
423;DHT22;198;48.752;9.180;2023-11-21T05:11:27;8.40;99.90
423;DHT22;198;48.752;9.180;2023-11-21T05:13:54;8.40;99.90
423;DHT22;198;48.752;9.180;2023-11-21T05:16:21;8.40;99.90
423;DHT22;198;48.752;9.180;2023-11-21T05:18:47;8.30;99.90
423;DHT22;198;48.752;9.180;2023-11-21T05:21:13;8.30;99.90
423;DHT22;198;48.752;9.180;2023-11-21T05:23:38;8.30;99.90
423;DHT22;198;48.752;9.180;2023-11-21T05:26:04;8.30;99.90
423;DHT22;198;48.752;9.180;2023-11-21T05:28:29;8.20;99.90
423;DHT22;198;48.752;9.180;2023-11-21T05:30:55;8.20;99.90
423;DHT22;198;48.752;9.180;2023-11-21T05:33:21;8.20;99.90
423;DHT22;198;48.752;9.180;2023-11-21T05:35:46;8.10;99.90
423;DHT22;198;48.752;9.180;2023-11-21T05:38:14;8.00;99.90
423;DHT22;198;48.752;9.180;2023-11-21T05:40:39;8.00;99.90
423;DHT22;198;48.752;9.180;2023-11-21T05:43:05;8.00;99.90
423;DHT22;198;48.752;9.180;2023-11-21T05:45:30;8.10;99.90
423;DHT22;198;48.752;9.180;2023-11-21T05:47:57;8.10;99.90
423;DHT22;198;48.752;9.180;2023-11-21T05:50:23;8.10;99.90
423;DHT22;198;48.752;9.180;2023-11-21T05:52:48;8.10;99.90
423;DHT22;198;48.752;9.180;2023-11-21T05:55:14;8.00;99.90
423;DHT22;198;48.752;9.180;2023-11-21T05:57:43;7.90;99.90
423;DHT22;198;48.752;9.180;2023-11-21T06:00:13;7.90;99.90
423;DHT22;198;48.752;9.180;2023-11-21T06:02:46;7.90;99.90
423;DHT22;198;48.752;9.180;2023-11-21T06:05:12;7.90;99.90
423;DHT22;198;48.752;9.180;2023-11-21T06:07:38;7.90;99.90
423;DHT22;198;48.752;9.180;2023-11-21T06:10:04;7.90;99.90
423;DHT22;198;48.752;9.180;2023-11-21T06:12:37;7.80;99.90
423;DHT22;198;48.752;9.180;2023-11-21T06:15:04;7.80;99.90
423;DHT22;198;48.752;9.180;2023-11-21T06:17:31;7.80;99.90
423;DHT22;198;48.752;9.180;2023-11-21T06:19:57;7.80;99.90
423;DHT22;198;48.752;9.180;2023-11-21T06:22:22;7.90;99.90
423;DHT22;198;48.752;9.180;2023-11-21T06:24:48;7.80;99.90
423;DHT22;198;48.752;9.180;2023-11-21T06:27:13;7.80;99.90
423;DHT22;198;48.752;9.180;2023-11-21T06:29:39;7.80;99.90
423;DHT22;198;48.752;9.180;2023-11-21T06:32:05;7.80;99.90
423;DHT22;198;48.752;9.180;2023-11-21T06:34:31;7.90;99.90
423;DHT22;198;48.752;9.180;2023-11-21T06:36:56;7.80;99.90
423;DHT22;198;48.752;9.180;2023-11-21T06:39:22;7.80;99.90
423;DHT22;198;48.752;9.180;2023-11-21T06:41:51;7.80;99.90
423;DHT22;198;48.752;9.180;2023-11-21T06:44:17;7.90;99.90
423;DHT22;198;48.752;9.180;2023-11-21T06:46:42;7.90;99.90
423;DHT22;198;48.752;9.180;2023-11-21T06:49:08;8.00;99.90
423;DHT22;198;48.752;9.180;2023-11-21T06:51:34;8.00;99.90
423;DHT22;198;48.752;9.180;2023-11-21T06:53:59;8.00;99.90
423;DHT22;198;48.752;9.180;2023-11-21T06:56:25;8.10;99.90
423;DHT22;198;48.752;9.180;2023-11-21T06:58:50;8.10;99.90
423;DHT22;198;48.752;9.180;2023-11-21T07:01:19;8.20;99.90
423;DHT22;198;48.752;9.180;2023-11-21T07:03:45;8.30;99.90
423;DHT22;198;48.752;9.180;2023-11-21T07:06:10;8.30;99.90
423;DHT22;198;48.752;9.180;2023-11-21T07:08:37;8.40;99.90
423;DHT22;198;48.752;9.180;2023-11-21T07:11:03;8.40;99.90
423;DHT22;198;48.752;9.180;2023-11-21T07:13:29;8.50;99.90
423;DHT22;198;48.752;9.180;2023-11-21T07:15:55;8.60;99.90
423;DHT22;198;48.752;9.180;2023-11-21T07:18:21;8.60;99.90
423;DHT22;198;48.752;9.180;2023-11-21T07:20:46;8.70;99.90
423;DHT22;198;48.752;9.180;2023-11-21T07:23:12;8.70;99.90
423;DHT22;198;48.752;9.180;2023-11-21T07:25:37;8.70;99.90
423;DHT22;198;48.752;9.180;2023-11-21T07:28:03;8.90;99.90
423;DHT22;198;48.752;9.180;2023-11-21T07:30:30;8.80;99.90
423;DHT22;198;48.752;9.180;2023-11-21T07:32:56;8.90;99.90
423;DHT22;198;48.752;9.180;2023-11-21T07:35:21;9.00;99.90
423;DHT22;198;48.752;9.180;2023-11-21T07:37:47;8.90;99.90
423;DHT22;198;48.752;9.180;2023-11-21T07:40:14;8.90;99.90
423;DHT22;198;48.752;9.180;2023-11-21T07:42:39;8.90;99.90
423;DHT22;198;48.752;9.180;2023-11-21T07:45:05;9.00;99.90
423;DHT22;198;48.752;9.180;2023-11-21T07:47:32;9.00;99.90
423;DHT22;198;48.752;9.180;2023-11-21T07:50:00;9.00;99.90
423;DHT22;198;48.752;9.180;2023-11-21T07:52:25;9.00;99.90
423;DHT22;198;48.752;9.180;2023-11-21T07:54:51;9.00;99.90
423;DHT22;198;48.752;9.180;2023-11-21T07:57:16;9.10;99.90
423;DHT22;198;48.752;9.180;2023-11-21T07:59:42;9.10;99.90
423;DHT22;198;48.752;9.180;2023-11-21T08:02:07;9.10;99.90
423;DHT22;198;48.752;9.180;2023-11-21T08:04:33;9.10;99.90
423;DHT22;198;48.752;9.180;2023-11-21T08:07:01;9.10;99.90
423;DHT22;198;48.752;9.180;2023-11-21T08:09:26;9.10;99.90
423;DHT22;198;48.752;9.180;2023-11-21T08:11:52;9.20;99.90
423;DHT22;198;48.752;9.180;2023-11-21T08:14:18;9.20;99.90
423;DHT22;198;48.752;9.180;2023-11-21T08:16:45;9.20;99.90
423;DHT22;198;48.752;9.180;2023-11-21T08:19:11;9.20;99.90
423;DHT22;198;48.752;9.180;2023-11-21T08:21:36;9.30;99.90
423;DHT22;198;48.752;9.180;2023-11-21T08:24:06;9.30;99.90
423;DHT22;198;48.752;9.180;2023-11-21T08:26:36;9.30;99.90
423;DHT22;198;48.752;9.180;2023-11-21T08:29:01;9.40;99.90
423;DHT22;198;48.752;9.180;2023-11-21T08:31:27;9.40;99.90
423;DHT22;198;48.752;9.180;2023-11-21T08:33:52;9.40;99.90
423;DHT22;198;48.752;9.180;2023-11-21T08:36:25;9.40;99.90
423;DHT22;198;48.752;9.180;2023-11-21T08:38:51;9.40;99.90
423;DHT22;198;48.752;9.180;2023-11-21T08:41:20;9.40;99.90
423;DHT22;198;48.752;9.180;2023-11-21T08:43:50;9.40;99.90
423;DHT22;198;48.752;9.180;2023-11-21T08:46:16;9.40;99.90
423;DHT22;198;48.752;9.180;2023-11-21T08:48:43;9.60;99.90
423;DHT22;198;48.752;9.180;2023-11-21T08:51:10;9.80;99.90
423;DHT22;198;48.752;9.180;2023-11-21T08:53:36;9.90;99.90
423;DHT22;198;48.752;9.180;2023-11-21T08:56:03;10.20;99.90
423;DHT22;198;48.752;9.180;2023-11-21T08:58:30;10.40;99.90
423;DHT22;198;48.752;9.180;2023-11-21T09:00:56;10.60;99.90
423;DHT22;198;48.752;9.180;2023-11-21T09:03:21;10.80;99.90
423;DHT22;198;48.752;9.180;2023-11-21T09:05:48;10.90;99.90
423;DHT22;198;48.752;9.180;2023-11-21T09:08:13;11.20;99.90
423;DHT22;198;48.752;9.180;2023-11-21T09:10:39;11.50;99.90
423;DHT22;198;48.752;9.180;2023-11-21T09:13:05;11.70;99.90
423;DHT22;198;48.752;9.180;2023-11-21T09:15:30;12.10;99.90
423;DHT22;198;48.752;9.180;2023-11-21T09:17:56;12.60;99.90
423;DHT22;198;48.752;9.180;2023-11-21T09:20:21;14.40;99.90
423;DHT22;198;48.752;9.180;2023-11-21T09:22:48;15.50;99.90
423;DHT22;198;48.752;9.180;2023-11-21T09:25:14;15.90;99.90
423;DHT22;198;48.752;9.180;2023-11-21T09:27:40;16.40;99.90
423;DHT22;198;48.752;9.180;2023-11-21T09:30:06;17.40;99.00
423;DHT22;198;48.752;9.180;2023-11-21T09:32:35;17.60;95.00
423;DHT22;198;48.752;9.180;2023-11-21T09:35:03;17.50;93.40
423;DHT22;198;48.752;9.180;2023-11-21T09:37:30;17.20;90.80
423;DHT22;198;48.752;9.180;2023-11-21T09:39:55;16.70;90.60
423;DHT22;198;48.752;9.180;2023-11-21T09:42:38;16.10;90.70
423;DHT22;198;48.752;9.180;2023-11-21T09:45:17;15.60;92.00
423;DHT22;198;48.752;9.180;2023-11-21T09:47:45;15.00;93.40
423;DHT22;198;48.752;9.180;2023-11-21T09:50:14;14.60;94.90
423;DHT22;198;48.752;9.180;2023-11-21T09:52:57;14.30;96.60
423;DHT22;198;48.752;9.180;2023-11-21T09:55:26;14.00;98.70
423;DHT22;198;48.752;9.180;2023-11-21T09:57:53;13.70;99.90
423;DHT22;198;48.752;9.180;2023-11-21T10:00:19;13.50;99.90
423;DHT22;198;48.752;9.180;2023-11-21T10:02:49;13.30;99.90
423;DHT22;198;48.752;9.180;2023-11-21T10:05:15;13.00;99.90
423;DHT22;198;48.752;9.180;2023-11-21T10:07:43;12.80;99.90
423;DHT22;198;48.752;9.180;2023-11-21T10:10:10;12.60;99.90
423;DHT22;198;48.752;9.180;2023-11-21T10:12:35;12.40;99.90
423;DHT22;198;48.752;9.180;2023-11-21T10:15:03;12.30;99.90
423;DHT22;198;48.752;9.180;2023-11-21T10:17:30;12.30;99.90
423;DHT22;198;48.752;9.180;2023-11-21T10:20:02;12.30;99.90
423;DHT22;198;48.752;9.180;2023-11-21T10:22:32;12.30;99.90
423;DHT22;198;48.752;9.180;2023-11-21T10:24:59;12.60;99.90
423;DHT22;198;48.752;9.180;2023-11-21T10:27:26;12.90;99.90
423;DHT22;198;48.752;9.180;2023-11-21T10:29:52;13.10;99.90
423;DHT22;198;48.752;9.180;2023-11-21T10:32:18;13.00;99.90
423;DHT22;198;48.752;9.180;2023-11-21T10:34:55;12.90;99.90
423;DHT22;198;48.752;9.180;2023-11-21T10:37:21;12.70;99.90
423;DHT22;198;48.752;9.180;2023-11-21T10:39:46;12.60;99.90
423;DHT22;198;48.752;9.180;2023-11-21T10:42:12;12.50;99.90
423;DHT22;198;48.752;9.180;2023-11-21T10:44:37;12.50;99.90
423;DHT22;198;48.752;9.180;2023-11-21T10:47:03;12.50;99.90
423;DHT22;198;48.752;9.180;2023-11-21T10:49:30;12.50;99.90
423;DHT22;198;48.752;9.180;2023-11-21T10:51:56;12.40;99.90
423;DHT22;198;48.752;9.180;2023-11-21T10:54:23;12.30;99.90
423;DHT22;198;48.752;9.180;2023-11-21T10:56:55;12.20;99.90
423;DHT22;198;48.752;9.180;2023-11-21T10:59:22;12.10;99.90
423;DHT22;198;48.752;9.180;2023-11-21T11:01:50;12.00;99.90
423;DHT22;198;48.752;9.180;2023-11-21T11:04:18;12.00;99.90
423;DHT22;198;48.752;9.180;2023-11-21T11:06:51;12.00;99.90
423;DHT22;198;48.752;9.180;2023-11-21T11:09:19;12.20;99.90
423;DHT22;198;48.752;9.180;2023-11-21T11:11:46;12.60;99.90
423;DHT22;198;48.752;9.180;2023-11-21T11:14:12;13.10;99.90
423;DHT22;198;48.752;9.180;2023-11-21T11:16:39;13.80;99.90
423;DHT22;198;48.752;9.180;2023-11-21T11:19:09;14.00;99.90
423;DHT22;198;48.752;9.180;2023-11-21T11:22:01;14.30;99.90
423;DHT22;198;48.752;9.180;2023-11-21T11:25:06;14.30;99.90
423;DHT22;198;48.752;9.180;2023-11-21T11:28:00;14.20;99.90
423;DHT22;198;48.752;9.180;2023-11-21T11:35:56;14.50;99.90
423;DHT22;198;48.752;9.180;2023-11-21T11:38:22;14.50;99.90
423;DHT22;198;48.752;9.180;2023-11-21T11:40:53;14.30;99.90
423;DHT22;198;48.752;9.180;2023-11-21T11:43:26;13.90;99.90
423;DHT22;198;48.752;9.180;2023-11-21T11:45:55;13.60;99.90
423;DHT22;198;48.752;9.180;2023-11-21T11:48:22;13.40;99.90
423;DHT22;198;48.752;9.180;2023-11-21T11:51:02;13.30;99.90
423;DHT22;198;48.752;9.180;2023-11-21T11:53:37;13.20;99.90
423;DHT22;198;48.752;9.180;2023-11-21T11:56:33;13.30;99.90
423;DHT22;198;48.752;9.180;2023-11-21T11:59:04;13.60;99.90
423;DHT22;198;48.752;9.180;2023-11-21T12:01:33;13.80;99.90
423;DHT22;198;48.752;9.180;2023-11-21T12:06:41;13.90;99.90
423;DHT22;198;48.752;9.180;2023-11-21T12:09:06;14.00;99.90
423;DHT22;198;48.752;9.180;2023-11-21T12:11:33;13.90;99.90
423;DHT22;198;48.752;9.180;2023-11-21T12:14:01;13.90;99.90
423;DHT22;198;48.752;9.180;2023-11-21T12:16:27;13.80;99.90
423;DHT22;198;48.752;9.180;2023-11-21T12:18:53;13.70;99.90
423;DHT22;198;48.752;9.180;2023-11-21T12:21:20;13.50;99.90
423;DHT22;198;48.752;9.180;2023-11-21T12:23:46;13.40;99.90
423;DHT22;198;48.752;9.180;2023-11-21T12:26:13;13.50;99.90
423;DHT22;198;48.752;9.180;2023-11-21T12:28:39;13.50;99.90
423;DHT22;198;48.752;9.180;2023-11-21T12:31:04;13.40;99.90
423;DHT22;198;48.752;9.180;2023-11-21T12:33:35;13.30;99.90
423;DHT22;198;48.752;9.180;2023-11-21T12:36:01;13.20;99.90
423;DHT22;198;48.752;9.180;2023-11-21T12:38:34;13.20;99.90
423;DHT22;198;48.752;9.180;2023-11-21T12:41:00;13.20;99.90
423;DHT22;198;48.752;9.180;2023-11-21T12:43:26;13.20;99.90
423;DHT22;198;48.752;9.180;2023-11-21T12:46:07;13.20;99.90
423;DHT22;198;48.752;9.180;2023-11-21T12:48:33;13.30;99.90
423;DHT22;198;48.752;9.180;2023-11-21T12:50:58;13.40;99.90
423;DHT22;198;48.752;9.180;2023-11-21T12:53:26;13.40;99.90
423;DHT22;198;48.752;9.180;2023-11-21T12:55:51;13.20;99.90
423;DHT22;198;48.752;9.180;2023-11-21T12:58:17;13.20;99.90
423;DHT22;198;48.752;9.180;2023-11-21T13:00:48;13.10;99.90
423;DHT22;198;48.752;9.180;2023-11-21T13:03:16;12.90;99.90
423;DHT22;198;48.752;9.180;2023-11-21T13:05:51;12.70;99.90
423;DHT22;198;48.752;9.180;2023-11-21T13:08:19;12.60;99.90
423;DHT22;198;48.752;9.180;2023-11-21T13:10:49;12.40;99.90
423;DHT22;198;48.752;9.180;2023-11-21T13:13:15;12.30;99.90
423;DHT22;198;48.752;9.180;2023-11-21T13:15:58;12.40;99.90
423;DHT22;198;48.752;9.180;2023-11-21T13:18:29;12.60;99.90
423;DHT22;198;48.752;9.180;2023-11-21T13:20:58;12.90;99.90
423;DHT22;198;48.752;9.180;2023-11-21T13:23:24;13.40;99.90
423;DHT22;198;48.752;9.180;2023-11-21T13:25:50;13.60;99.90
423;DHT22;198;48.752;9.180;2023-11-21T13:28:16;13.50;99.90
423;DHT22;198;48.752;9.180;2023-11-21T13:30:43;13.20;99.90
423;DHT22;198;48.752;9.180;2023-11-21T13:33:10;13.00;99.90
423;DHT22;198;48.752;9.180;2023-11-21T13:35:43;12.60;99.90
423;DHT22;198;48.752;9.180;2023-11-21T13:38:15;12.30;99.90
423;DHT22;198;48.752;9.180;2023-11-21T13:40:49;12.10;99.90
423;DHT22;198;48.752;9.180;2023-11-21T13:43:16;12.00;99.90
423;DHT22;198;48.752;9.180;2023-11-21T13:45:46;11.90;99.90
423;DHT22;198;48.752;9.180;2023-11-21T13:48:13;11.80;99.90
423;DHT22;198;48.752;9.180;2023-11-21T13:50:45;11.60;99.90
423;DHT22;198;48.752;9.180;2023-11-21T13:53:20;11.60;99.90
423;DHT22;198;48.752;9.180;2023-11-21T13:55:49;11.40;99.90
423;DHT22;198;48.752;9.180;2023-11-21T13:58:16;11.30;99.90
423;DHT22;198;48.752;9.180;2023-11-21T14:00:48;11.20;99.90
423;DHT22;198;48.752;9.180;2023-11-21T14:03:22;11.20;99.90
423;DHT22;198;48.752;9.180;2023-11-21T14:05:48;11.00;99.90
423;DHT22;198;48.752;9.180;2023-11-21T14:08:23;11.00;99.90
423;DHT22;198;48.752;9.180;2023-11-21T14:10:54;10.90;99.90
423;DHT22;198;48.752;9.180;2023-11-21T14:13:23;10.90;99.90
423;DHT22;198;48.752;9.180;2023-11-21T14:15:50;10.90;99.90
423;DHT22;198;48.752;9.180;2023-11-21T14:18:23;10.90;99.90
423;DHT22;198;48.752;9.180;2023-11-21T14:20:56;10.80;99.90
423;DHT22;198;48.752;9.180;2023-11-21T14:23:21;10.80;99.90
423;DHT22;198;48.752;9.180;2023-11-21T14:25:48;10.80;99.90
423;DHT22;198;48.752;9.180;2023-11-21T14:28:15;10.80;99.90
423;DHT22;198;48.752;9.180;2023-11-21T14:30:41;10.70;99.90
423;DHT22;198;48.752;9.180;2023-11-21T14:33:07;10.70;99.90
423;DHT22;198;48.752;9.180;2023-11-21T14:35:35;10.70;99.90
423;DHT22;198;48.752;9.180;2023-11-21T14:38:01;10.70;99.90
423;DHT22;198;48.752;9.180;2023-11-21T14:40:28;10.70;99.90
423;DHT22;198;48.752;9.180;2023-11-21T14:42:58;10.70;99.90
423;DHT22;198;48.752;9.180;2023-11-21T14:45:24;10.70;99.90
423;DHT22;198;48.752;9.180;2023-11-21T14:47:51;10.70;99.90
423;DHT22;198;48.752;9.180;2023-11-21T14:50:30;10.70;99.90
423;DHT22;198;48.752;9.180;2023-11-21T14:53:11;10.70;99.90
423;DHT22;198;48.752;9.180;2023-11-21T14:55:39;10.70;99.90
423;DHT22;198;48.752;9.180;2023-11-21T14:58:17;10.70;99.90
423;DHT22;198;48.752;9.180;2023-11-21T15:00:55;10.70;99.90
423;DHT22;198;48.752;9.180;2023-11-21T15:03:25;10.70;99.90
423;DHT22;198;48.752;9.180;2023-11-21T15:06:04;10.70;99.90
423;DHT22;198;48.752;9.180;2023-11-21T15:08:51;10.60;99.90
423;DHT22;198;48.752;9.180;2023-11-21T15:11:32;10.60;99.90
423;DHT22;198;48.752;9.180;2023-11-21T15:13:58;10.50;99.90
423;DHT22;198;48.752;9.180;2023-11-21T15:16:25;10.50;99.90
423;DHT22;198;48.752;9.180;2023-11-21T15:18:54;10.40;99.90
423;DHT22;198;48.752;9.180;2023-11-21T15:21:20;10.40;99.90
423;DHT22;198;48.752;9.180;2023-11-21T15:23:47;10.40;99.90
423;DHT22;198;48.752;9.180;2023-11-21T15:26:13;10.40;99.90
423;DHT22;198;48.752;9.180;2023-11-21T15:28:38;10.40;99.90
423;DHT22;198;48.752;9.180;2023-11-21T15:31:04;10.40;99.90
423;DHT22;198;48.752;9.180;2023-11-21T15:33:30;10.40;99.90
423;DHT22;198;48.752;9.180;2023-11-21T15:35:56;10.30;99.90
423;DHT22;198;48.752;9.180;2023-11-21T15:38:22;10.40;99.90
423;DHT22;198;48.752;9.180;2023-11-21T15:40:49;10.30;99.90
423;DHT22;198;48.752;9.180;2023-11-21T15:43:15;10.30;99.90
423;DHT22;198;48.752;9.180;2023-11-21T15:45:41;10.30;99.90
423;DHT22;198;48.752;9.180;2023-11-21T15:48:06;10.30;99.90
423;DHT22;198;48.752;9.180;2023-11-21T15:50:32;10.30;99.90
423;DHT22;198;48.752;9.180;2023-11-21T15:52:57;10.30;99.90
423;DHT22;198;48.752;9.180;2023-11-21T15:55:24;10.20;99.90
423;DHT22;198;48.752;9.180;2023-11-21T15:57:50;10.20;99.90
423;DHT22;198;48.752;9.180;2023-11-21T16:00:16;10.10;99.90
423;DHT22;198;48.752;9.180;2023-11-21T16:02:45;10.00;99.90
423;DHT22;198;48.752;9.180;2023-11-21T16:05:11;10.00;99.90
423;DHT22;198;48.752;9.180;2023-11-21T16:07:42;9.90;99.90
423;DHT22;198;48.752;9.180;2023-11-21T16:10:09;9.90;99.90
423;DHT22;198;48.752;9.180;2023-11-21T16:12:40;9.90;99.90
423;DHT22;198;48.752;9.180;2023-11-21T16:15:06;9.80;99.90
423;DHT22;198;48.752;9.180;2023-11-21T16:17:36;9.90;99.90
423;DHT22;198;48.752;9.180;2023-11-21T16:20:05;9.90;99.90
423;DHT22;198;48.752;9.180;2023-11-21T16:22:39;9.90;99.90
423;DHT22;198;48.752;9.180;2023-11-21T16:25:06;9.90;99.90
423;DHT22;198;48.752;9.180;2023-11-21T16:27:36;9.90;99.90
423;DHT22;198;48.752;9.180;2023-11-21T16:30:04;9.90;99.90
423;DHT22;198;48.752;9.180;2023-11-21T16:32:30;10.00;99.90
423;DHT22;198;48.752;9.180;2023-11-21T16:34:56;10.00;99.90
423;DHT22;198;48.752;9.180;2023-11-21T16:37:22;10.00;99.90
423;DHT22;198;48.752;9.180;2023-11-21T16:39:47;10.00;99.90
423;DHT22;198;48.752;9.180;2023-11-21T16:42:13;10.00;99.90
423;DHT22;198;48.752;9.180;2023-11-21T16:44:39;10.00;99.90
423;DHT22;198;48.752;9.180;2023-11-21T16:47:05;10.00;99.90
423;DHT22;198;48.752;9.180;2023-11-21T16:49:33;9.90;99.90
423;DHT22;198;48.752;9.180;2023-11-21T16:52:01;9.90;99.90
423;DHT22;198;48.752;9.180;2023-11-21T16:54:27;9.90;99.90